Terminal Aerodrome Forecast
Issued by NWS

Current Version | Previous Version | Text Only | Print | Product List | Glossary On
Versions: 1 2 3 4 5 6 7 8 9 10 11 12 13
041
FTUS43 KAPX 241720
TAFPLN
TAF
KPLN 241720Z 2418/2518 35005KT 4SM -RA BR OVC005
     FM250600 06005KT P6SM OVC012
     FM251400 07011G20KT P6SM BKN040=

USA.gov is the U.S. government's official web portal to all federal, state and local government web resources and services.